Bismarck Municipal Airport
KBIS : now visible

Airfield :











YOU CAN JOIN US ON...

 
LOGIN :

Register | Disclaimer

   EN    FR    IT 

 









Legend :    VFR   Marginal VFR   IFR   Intensive IFR   Very Intensive IFR
Visi :
Ceiling :
>= 8 km
>= 3000ft
5 to 8 km
1000 to 3000 ft
1500m to 5 km
500 to 1000 ft
800 to 1500m
200 to 500 ft
< 800m
< 200 ft
Symbols :   Thunderstorms  Fog  Heavy snow  Heavy precipitations  Wind > 20 kt






- Airport Elevation : 1661 ft
- IATA code : BIS


KBIS - Bismarck Municipal

CURRENT METAR :
  • 200852Z AUTO 22003KT 10SM BKN055 OVC075 M04/M09 A3017 RMK AO2 SLP238 T10391094 58007

EXPIRED METARs :
  • 200752Z AUTO 28004KT 10SM OVC070 M03/M11 A3018 RMK AO2 SLP241 T10331111
  • 200652Z AUTO 23003KT 10SM BKN070 OVC080 M03/M09 A3019 RMK AO2 SLP245 T10331094

TAF KBIS
Valid from the 20 at 06:00 until the 21 at 06:00 UTC


200526Z 2006/2106 35005KT P6SM BKN050
FM201500 34010KT 5SM -SHSN SCT015 BKN025
FM201800 36014G22KT P6SM VCSH SCT025 BKN045
FM210100 35008KT P6SM FEW045 SCT060
KZMP FIR / North America



MET'MAP, your aeronautical weather chart ! - Copyright ORBIFLY December 2007 - Disclaimer

ORBIFLY MET'MAP TEAM :

Programming & Development : Alexandra Zaïnal
Concept & original design : Baudouin d'Aumeries
Assistance for programming : Marc-Olivier Méhu
Technical & hardware support : Manuel Goepfert

Contact : metmap@orbifly.com




SOURCES & CREDITS :

   NOAA       Earth
Advisory